createdAt,value
2017-10-11T00:00:03.056Z,96011.84
2017-10-11T00:02:32.075Z,96011.62
2017-10-11T00:05:01.119Z,96012.34
2017-10-11T00:07:31.058Z,96012.25
2017-10-11T00:10:00.111Z,96014.63
2017-10-11T00:12:29.152Z,96012.18
2017-10-11T00:14:58.196Z,96014.91
2017-10-11T00:17:27.236Z,96013.72
2017-10-11T00:19:56.275Z,96017.65
2017-10-11T00:22:25.327Z,96014.20
2017-10-11T00:24:54.336Z,96017.22
2017-10-11T00:27:23.371Z,96017.98
2017-10-11T00:29:52.402Z,96017.17
2017-10-11T00:32:21.443Z,96018.38
2017-10-11T00:34:50.505Z,96017.17
2017-10-11T00:37:19.516Z,96019.58
2017-10-11T00:39:48.547Z,96015.00
2017-10-11T00:42:17.590Z,96009.84
2017-10-11T00:44:46.659Z,96013.44
2017-10-11T00:47:15.692Z,96009.25
2017-10-11T00:49:44.722Z,96006.41
2017-10-11T00:52:13.763Z,96009.58
2017-10-11T00:54:42.819Z,96012.05
2017-10-11T00:57:11.930Z,96004.52
2017-10-11T00:59:41.962Z,96005.28
2017-10-11T01:02:10.998Z,96007.63
2017-10-11T01:04:40.030Z,96007.52
2017-10-11T01:07:09.055Z,96009.75
2017-10-11T01:09:38.086Z,96008.63
2017-10-11T01:12:07.110Z,96011.59
2017-10-11T01:14:36.365Z,96015.02
2017-10-11T01:17:05.395Z,96018.36
2017-10-11T01:19:34.435Z,96017.14
2017-10-11T01:22:03.491Z,96015.94
2017-10-11T01:24:32.494Z,96018.31
2017-10-11T01:27:01.570Z,96022.80
2017-10-11T01:29:30.665Z,96015.30
2017-10-11T01:31:59.670Z,96016.34
2017-10-11T01:34:28.704Z,96016.23
2017-10-11T01:36:57.731Z,96012.27
2017-10-11T01:39:26.814Z,96012.36
2017-10-11T01:41:55.841Z,96009.33
2017-10-11T01:44:24.875Z,96012.06
2017-10-11T01:46:53.919Z,96009.10
2017-10-11T01:49:23.855Z,96000.81
2017-10-11T01:51:53.017Z,96010.15
2017-10-11T01:54:22.067Z,96012.92
2017-10-11T01:56:51.116Z,96006.58
2017-10-11T01:59:20.170Z,96011.23
2017-10-11T02:01:49.198Z,96007.86
2017-10-11T02:04:18.234Z,96012.69
2017-10-11T02:06:47.276Z,96005.25
2017-10-11T02:09:16.322Z,96007.37
2017-10-11T02:11:45.364Z,96010.73
2017-10-11T02:14:14.394Z,96005.53
2017-10-11T02:16:45.395Z,96009.36
2017-10-11T02:19:16.436Z,96001.23
2017-10-11T02:21:46.370Z,96001.44
2017-10-11T02:24:15.405Z,96002.80
2017-10-11T02:26:44.462Z,96001.53
2017-10-11T02:29:14.475Z,96001.06
2017-10-11T02:31:43.546Z,96000.17
2017-10-11T02:34:12.562Z,96001.63
2017-10-11T02:36:41.613Z,96003.47
2017-10-11T02:39:10.653Z,96001.48
2017-10-11T02:41:39.680Z,95994.47
2017-10-11T02:44:08.731Z,95989.97
2017-10-11T02:46:37.772Z,95989.05
2017-10-11T02:49:09.841Z,95992.80
2017-10-11T02:51:38.897Z,95990.29
2017-10-11T02:54:07.914Z,95988.06
2017-10-11T02:56:36.957Z,95984.54
2017-10-11T02:59:06.037Z,95987.22
2017-10-11T03:01:35.050Z,95984.78
2017-10-11T03:04:04.099Z,95989.38
2017-10-11T03:06:33.126Z,95989.04
2017-10-11T03:09:02.158Z,95988.44
2017-10-11T03:11:31.258Z,95991.82
2017-10-11T03:14:00.303Z,95991.77
2017-10-11T03:16:29.347Z,95993.48
2017-10-11T03:18:58.383Z,95988.27
2017-10-11T03:21:27.859Z,95984.63
2017-10-11T03:23:56.903Z,95986.78
2017-10-11T03:26:25.954Z,95984.47
2017-10-11T03:28:56.914Z,95982.11
2017-10-11T03:31:26.027Z,95984.80
2017-10-11T03:33:55.055Z,95982.81
2017-10-11T03:36:25.110Z,95986.16
2017-10-11T03:38:54.135Z,95985.21
2017-10-11T03:41:23.213Z,95985.87
2017-10-11T03:43:52.250Z,95984.98
2017-10-11T03:46:22.312Z,95985.88
2017-10-11T03:48:51.375Z,95985.23
2017-10-11T03:51:20.412Z,95988.86
2017-10-11T03:53:49.444Z,95986.48
2017-10-11T03:56:18.509Z,95991.23
2017-10-11T03:58:47.535Z,95989.02
2017-10-11T04:01:16.583Z,95985.47
2017-10-11T04:03:45.633Z,95985.14
2017-10-11T04:06:14.698Z,95980.39
2017-10-11T04:08:43.738Z,95983.29
2017-10-11T04:11:12.771Z,95982.03
2017-10-11T04:13:42.819Z,95983.13
2017-10-11T04:16:11.842Z,95982.53
2017-10-11T04:18:40.985Z,95979.59
2017-10-11T04:21:10.015Z,95978.20
2017-10-11T04:23:39.064Z,95978.84
2017-10-11T04:26:08.109Z,95985.33
2017-10-11T04:28:37.151Z,95983.23
2017-10-11T04:31:06.229Z,95985.30
2017-10-11T04:33:35.271Z,95985.71
2017-10-11T04:36:04.282Z,95988.16
2017-10-11T04:38:33.327Z,95988.28
2017-10-11T04:41:02.358Z,95985.13
2017-10-11T04:43:31.534Z,95986.76
2017-10-11T04:46:00.590Z,95985.69
2017-10-11T04:48:29.614Z,95985.17
2017-10-11T04:50:58.651Z,95984.17
2017-10-11T04:53:27.683Z,95983.78
2017-10-11T04:55:56.755Z,95980.48
2017-10-11T04:58:25.797Z,95979.22
2017-10-11T05:00:54.855Z,95983.19
2017-10-11T05:03:24.918Z,95984.10
2017-10-11T05:05:54.124Z,95990.64
2017-10-11T05:08:23.601Z,95991.82
2017-10-11T05:10:52.623Z,95992.36
2017-10-11T05:13:22.664Z,95992.03
2017-10-11T05:15:51.715Z,95991.02
2017-10-11T05:18:20.752Z,95992.42
2017-10-11T05:20:49.804Z,95991.88
2017-10-11T05:23:18.842Z,95992.73
2017-10-11T05:25:47.868Z,95992.52
2017-10-11T05:28:16.935Z,95997.71
2017-10-11T05:30:46.868Z,95996.42
2017-10-11T05:33:15.909Z,96003.20
2017-10-11T05:35:44.935Z,96002.94
2017-10-11T05:38:13.971Z,96004.89
2017-10-11T05:40:43.600Z,96005.86
2017-10-11T05:43:12.613Z,96005.11
2017-10-11T05:45:41.638Z,96006.70
2017-10-11T05:48:10.679Z,96006.62
2017-10-11T05:50:39.714Z,96007.97
2017-10-11T05:53:08.755Z,96015.19
2017-10-11T05:55:37.803Z,96011.84
2017-10-11T05:58:06.834Z,96011.25
2017-10-11T06:00:35.879Z,96006.56
2017-10-11T06:03:04.968Z,96008.55
2017-10-11T06:05:33.979Z,96005.32
2017-10-11T06:08:03.003Z,96003.00
2017-10-11T06:10:32.965Z,96004.00
2017-10-11T06:13:02.032Z,96001.79
2017-10-11T06:15:31.102Z,95998.64
2017-10-11T06:18:00.167Z,95998.58
2017-10-11T06:20:29.222Z,96000.08
2017-10-11T06:22:59.172Z,96000.73
2017-10-11T06:25:28.232Z,96000.54
2017-10-11T06:27:57.325Z,96008.13
2017-10-11T06:30:26.348Z,96005.61
2017-10-11T06:32:55.430Z,96008.69
2017-10-11T06:35:24.492Z,96015.36
2017-10-11T06:37:53.566Z,96018.12
2017-10-11T06:40:22.596Z,96020.09
2017-10-11T06:42:52.627Z,96020.57
2017-10-11T06:45:21.783Z,96018.03
2017-10-11T06:47:50.828Z,96027.12
2017-10-11T06:50:19.869Z,96024.55
2017-10-11T06:52:49.021Z,96027.31
2017-10-11T06:55:18.134Z,96028.02
2017-10-11T06:57:47.191Z,96031.28
2017-10-11T07:00:16.218Z,96034.42
2017-10-11T07:02:45.270Z,96035.92
2017-10-11T07:05:14.329Z,96042.04
2017-10-11T07:07:43.355Z,96040.00
2017-10-11T07:10:12.960Z,96045.11
2017-10-11T07:12:41.993Z,96048.79
2017-10-11T07:15:11.016Z,96045.31
2017-10-11T07:17:40.056Z,96046.31
2017-10-11T07:20:09.110Z,96044.59
2017-10-11T07:22:38.286Z,96045.32
2017-10-11T07:25:08.296Z,96041.77
2017-10-11T07:27:37.346Z,96043.39
2017-10-11T07:30:06.410Z,96045.09
2017-10-11T07:32:35.439Z,96047.39
2017-10-11T07:35:04.527Z,96042.98
2017-10-11T07:37:33.569Z,96044.31
2017-10-11T07:40:02.617Z,96042.55
2017-10-11T07:42:31.668Z,96039.22
2017-10-11T07:45:00.741Z,96040.53
2017-10-11T07:47:29.799Z,96044.17
2017-10-11T07:49:58.902Z,96038.59
2017-10-11T07:52:27.945Z,96037.02
2017-10-11T07:54:56.997Z,96034.66
2017-10-11T07:57:26.030Z,96040.61
2017-10-11T07:59:55.111Z,96039.23
2017-10-11T08:02:24.152Z,96037.69
2017-10-11T08:04:53.201Z,96034.84
2017-10-11T08:07:22.276Z,96038.98
2017-10-11T08:09:51.323Z,96039.16
2017-10-11T08:12:20.367Z,96039.51
2017-10-11T08:14:49.432Z,96036.34
2017-10-11T08:17:18.446Z,96039.49
2017-10-11T08:19:47.792Z,96037.36
2017-10-11T08:22:16.827Z,96036.63
2017-10-11T08:24:45.858Z,96042.38
2017-10-11T08:27:14.915Z,96037.36
2017-10-11T08:29:43.966Z,96036.96
2017-10-11T08:32:14.022Z,96033.70
2017-10-11T08:34:43.085Z,96034.44
2017-10-11T08:37:12.107Z,96033.69
2017-10-11T08:39:41.170Z,96037.67
2017-10-11T08:42:10.210Z,96040.81
2017-10-11T08:44:39.282Z,96041.10
2017-10-11T08:47:08.401Z,96032.53
2017-10-11T08:49:38.111Z,96030.08
2017-10-11T08:52:07.243Z,96027.89
2017-10-11T08:54:36.276Z,96031.31
2017-10-11T08:57:06.395Z,96031.23
2017-10-11T08:59:35.462Z,96033.18
2017-10-11T09:02:04.513Z,96028.36
2017-10-11T09:04:33.568Z,96029.42
2017-10-11T09:07:02.608Z,96033.11
2017-10-11T09:09:31.703Z,96030.30
2017-10-11T09:12:00.748Z,96032.43
2017-10-11T09:14:29.799Z,96035.34
2017-10-11T09:16:58.838Z,96038.91
2017-10-11T09:19:27.891Z,96035.77
2017-10-11T09:21:56.928Z,96033.09
2017-10-11T09:24:26.013Z,96027.17
2017-10-11T09:26:55.075Z,96019.57
2017-10-11T09:29:24.111Z,96021.59
2017-10-11T09:31:53.162Z,96021.50
2017-10-11T09:34:22.197Z,96023.16
2017-10-11T09:36:51.284Z,96027.33
2017-10-11T09:39:20.319Z,96022.51
2017-10-11T09:41:49.395Z,96024.42
2017-10-11T09:44:18.444Z,96020.80
2017-10-11T09:46:47.491Z,96019.91
2017-10-11T09:49:16.536Z,96020.98
2017-10-11T09:51:45.602Z,96017.06
2017-10-11T09:54:14.657Z,96014.57
2017-10-11T09:56:43.707Z,96020.30
2017-10-11T09:59:13.729Z,96012.88
2017-10-11T10:01:42.784Z,96012.16
2017-10-11T10:04:11.822Z,96013.27
2017-10-11T10:06:40.858Z,96011.80
2017-10-11T10:09:09.922Z,96012.02
2017-10-11T10:11:38.977Z,96009.13
2017-10-11T10:14:08.037Z,96004.61
2017-10-11T10:16:37.075Z,96006.69
2017-10-11T10:19:06.121Z,96002.59
2017-10-11T10:21:35.178Z,96002.72
2017-10-11T10:24:04.237Z,96002.73
2017-10-11T10:26:33.283Z,95995.19
2017-10-11T10:29:02.331Z,96002.03
2017-10-11T10:31:31.449Z,95990.96
2017-10-11T10:34:00.505Z,95988.30
2017-10-11T10:36:29.568Z,95985.91
2017-10-11T10:38:58.672Z,95977.22
2017-10-11T10:41:27.711Z,95981.94
2017-10-11T10:43:56.780Z,95979.50
2017-10-11T10:46:25.815Z,95979.08
2017-10-11T10:48:54.939Z,95968.39
2017-10-11T10:51:23.958Z,95972.86
2017-10-11T10:53:53.007Z,95975.52
2017-10-11T10:56:22.052Z,95967.72
2017-10-11T10:58:51.101Z,95965.11
2017-10-11T11:01:21.413Z,95966.19
2017-10-11T11:03:50.458Z,95964.18
2017-10-11T11:06:19.499Z,95956.80
2017-10-11T11:08:48.558Z,95947.46
2017-10-11T11:11:17.619Z,95949.25
2017-10-11T11:13:46.738Z,95947.75
2017-10-11T11:16:15.792Z,95951.91
2017-10-11T11:18:44.876Z,95949.29
2017-10-11T11:21:13.942Z,95943.77
2017-10-11T11:23:44.051Z,95946.18
2017-10-11T11:26:13.118Z,95934.66
2017-10-11T11:28:42.204Z,95943.36
2017-10-11T11:31:11.232Z,95939.98
2017-10-11T11:33:40.633Z,95938.65
2017-10-11T11:36:09.663Z,95939.37
2017-10-11T11:38:38.723Z,95941.89
2017-10-11T11:41:07.764Z,95941.31
2017-10-11T11:43:36.811Z,95941.19
2017-10-11T11:46:05.854Z,95941.24
2017-10-11T11:48:34.904Z,95932.88
2017-10-11T11:51:03.990Z,95929.64
2017-10-11T11:53:33.059Z,95930.36
2017-10-11T11:56:02.116Z,95928.56
2017-10-11T11:58:31.170Z,95929.06
2017-10-11T12:01:00.220Z,95925.16
2017-10-11T12:03:29.339Z,95920.92
2017-10-11T12:05:58.494Z,95915.96
2017-10-11T12:08:27.543Z,95918.16
2017-10-11T12:10:56.586Z,95917.12
2017-10-11T12:13:25.640Z,95911.05
2017-10-11T12:15:54.832Z,95911.05
2017-10-11T12:18:23.940Z,95909.39
2017-10-11T12:20:52.994Z,95902.88
2017-10-11T12:23:22.060Z,95894.22
2017-10-11T12:25:51.147Z,95890.22
2017-10-11T12:28:20.183Z,95891.95
2017-10-11T12:30:49.234Z,95891.71
2017-10-11T12:33:18.430Z,95890.02
2017-10-11T12:35:47.508Z,95890.93
2017-10-11T12:38:16.576Z,95887.89
2017-10-11T12:40:45.620Z,95887.23
2017-10-11T12:43:14.675Z,95877.26
2017-10-11T12:45:48.206Z,95866.14
2017-10-11T12:48:17.299Z,95872.67
2017-10-11T12:50:46.354Z,95878.23
2017-10-11T12:53:15.384Z,95870.23
2017-10-11T12:55:44.447Z,95866.81
2017-10-11T12:58:13.521Z,95863.33
2017-10-11T13:00:42.571Z,95861.53
2017-10-11T13:03:11.658Z,95864.77
2017-10-11T13:05:40.714Z,95862.29
2017-10-11T13:08:09.770Z,95861.10
2017-10-11T13:10:38.823Z,95856.31
2017-10-11T13:13:07.892Z,95847.42
2017-10-11T13:15:36.973Z,95849.59
2017-10-11T13:18:06.558Z,95846.22
2017-10-11T13:20:35.604Z,95845.39
2017-10-11T13:23:04.655Z,95839.42
2017-10-11T13:25:34.655Z,95836.06
2017-10-11T13:28:03.694Z,95832.84
2017-10-11T13:30:32.759Z,95833.17
2017-10-11T13:33:01.825Z,95829.80
2017-10-11T13:35:30.870Z,95826.69
2017-10-11T13:37:59.924Z,95822.02
2017-10-11T13:40:28.969Z,95830.05
2017-10-11T13:42:58.023Z,95832.97
2017-10-11T13:45:27.104Z,95828.85
2017-10-11T13:47:56.154Z,95820.19
2017-10-11T13:50:25.227Z,95824.80
2017-10-11T13:52:54.318Z,95824.08
2017-10-11T13:55:23.397Z,95821.91
2017-10-11T13:57:52.447Z,95825.30
2017-10-11T14:00:21.504Z,95822.52
2017-10-11T14:02:50.752Z,95817.83
2017-10-11T14:05:19.871Z,95815.64
2017-10-11T14:07:48.971Z,95819.73
2017-10-11T14:10:18.034Z,95816.17
2017-10-11T14:12:47.095Z,95818.42
2017-10-11T14:15:16.217Z,95813.73
2017-10-11T14:17:45.262Z,95806.77
2017-10-11T14:20:14.298Z,95814.70
2017-10-11T14:22:43.352Z,95813.12
2017-10-11T14:25:12.394Z,95814.48
2017-10-11T14:27:41.451Z,95812.38
2017-10-11T14:30:10.502Z,95812.38
2017-10-11T14:32:39.671Z,95808.98
2017-10-11T14:35:08.711Z,95809.98
2017-10-11T14:37:37.763Z,95805.31
2017-10-11T14:40:06.829Z,95805.06
2017-10-11T14:42:35.878Z,95802.77
2017-10-11T14:45:04.932Z,95802.88
2017-10-11T14:47:34.003Z,95796.55
2017-10-11T14:50:03.024Z,95793.86
2017-10-11T14:52:32.080Z,95796.31
2017-10-11T14:55:01.150Z,95790.02
2017-10-11T14:57:30.207Z,95793.92
2017-10-11T14:59:59.258Z,95790.44
2017-10-11T15:02:28.332Z,95790.09
2017-10-11T15:04:57.427Z,95801.86
2017-10-11T15:07:26.536Z,95796.52
2017-10-11T15:09:55.630Z,95794.88
2017-10-11T15:12:24.673Z,95803.09
2017-10-11T15:14:53.744Z,95800.61
2017-10-11T15:17:22.862Z,95799.98
2017-10-11T15:19:51.907Z,95796.65
2017-10-11T15:22:20.963Z,95809.09
2017-10-11T15:24:49.997Z,95804.44
2017-10-11T15:27:19.061Z,95803.27
2017-10-11T15:29:48.311Z,95803.95
2017-10-11T15:32:17.354Z,95805.41
2017-10-11T15:34:47.430Z,95804.66
2017-10-11T15:37:16.562Z,95801.61
2017-10-11T15:39:45.647Z,95805.38
2017-10-11T15:42:15.788Z,95810.59
2017-10-11T15:44:44.880Z,95813.58
2017-10-11T15:47:13.947Z,95814.95
2017-10-11T15:49:43.038Z,95816.56
2017-10-11T15:52:12.087Z,95809.69
2017-10-11T15:54:41.233Z,95820.05
2017-10-11T15:57:10.290Z,95817.89
2017-10-11T15:59:39.390Z,95821.16
2017-10-11T16:02:08.441Z,95826.50
2017-10-11T16:04:37.479Z,95824.72
2017-10-11T16:07:06.532Z,95824.09
2017-10-11T16:09:35.592Z,95823.79
2017-10-11T16:12:04.651Z,95825.03
2017-10-11T16:14:33.700Z,95824.61
2017-10-11T16:17:02.741Z,95821.09
2017-10-11T16:19:31.866Z,95820.88
2017-10-11T16:22:00.939Z,95817.53
2017-10-11T16:24:30.045Z,95816.44
2017-10-11T16:26:59.212Z,95815.21
2017-10-11T16:29:28.255Z,95819.04
2017-10-11T16:31:57.381Z,95823.18
2017-10-11T16:34:26.440Z,95823.34
2017-10-11T16:36:55.549Z,95824.72
2017-10-11T16:39:24.590Z,95818.23
2017-10-11T16:41:53.660Z,95817.88
2017-10-11T16:44:22.704Z,95822.36
2017-10-11T16:46:52.753Z,95823.33
2017-10-11T16:49:21.797Z,95825.97
2017-10-11T16:51:50.887Z,95820.34
2017-10-11T16:54:19.987Z,95824.56
2017-10-11T16:56:49.023Z,95822.39
2017-10-11T16:59:18.099Z,95823.81
2017-10-11T17:01:47.851Z,95832.17
2017-10-11T17:04:17.041Z,95828.06
2017-10-11T17:06:46.101Z,95830.90
2017-10-11T17:09:15.210Z,95823.84
2017-10-11T17:11:44.384Z,95832.29
2017-10-11T17:14:13.441Z,95831.64
2017-10-11T17:16:43.485Z,95829.00
2017-10-11T17:19:12.560Z,95831.20
2017-10-11T17:21:41.592Z,95830.70
2017-10-11T17:24:11.760Z,95835.67
2017-10-11T17:26:40.808Z,95835.34
2017-10-11T17:29:09.916Z,95835.44
2017-10-11T17:31:39.243Z,95836.36
2017-10-11T17:34:08.283Z,95841.45
2017-10-11T17:36:37.357Z,95842.23
2017-10-11T17:39:06.401Z,95841.87
2017-10-11T17:41:35.487Z,95844.56
2017-10-11T17:44:04.580Z,95843.96
2017-10-11T17:46:33.621Z,95844.03
2017-10-11T17:49:02.874Z,95844.09
2017-10-11T17:51:31.910Z,95844.94
2017-10-11T17:54:01.065Z,95841.81
2017-10-11T17:56:30.507Z,95845.77
2017-10-11T17:58:59.593Z,95851.52
2017-10-11T18:01:28.668Z,95848.14
2017-10-11T18:03:59.692Z,95850.53
2017-10-11T18:06:28.745Z,95849.97
2017-10-11T18:08:57.782Z,95851.91
2017-10-11T18:11:26.825Z,95849.80
2017-10-11T18:13:55.896Z,95852.34
2017-10-11T18:16:24.947Z,95854.95
2017-10-11T18:18:55.141Z,95854.56
2017-10-11T18:21:24.250Z,95855.83
2017-10-11T18:23:53.305Z,95853.41
2017-10-11T18:26:22.368Z,95855.23
2017-10-11T18:28:52.455Z,95853.58
2017-10-11T18:31:21.523Z,95858.78
2017-10-11T18:33:50.610Z,95857.64
2017-10-11T18:36:19.679Z,95861.78
2017-10-11T18:38:49.467Z,95858.97
2017-10-11T18:41:18.511Z,95864.93
2017-10-11T18:43:47.567Z,95861.78
2017-10-11T18:46:16.602Z,95864.96
2017-10-11T18:48:45.654Z,95861.45
2017-10-11T18:51:14.699Z,95866.92
2017-10-11T18:53:43.740Z,95869.76
2017-10-11T18:56:12.958Z,95868.83
2017-10-11T18:58:41.998Z,95872.45
2017-10-11T19:01:12.269Z,95872.57
2017-10-11T19:03:42.227Z,95877.01
2017-10-11T19:06:11.263Z,95870.34
2017-10-11T19:08:40.319Z,95869.69
2017-10-11T19:11:09.356Z,95872.69
2017-10-11T19:13:38.413Z,95873.10
2017-10-11T19:16:07.443Z,95876.82
2017-10-11T19:18:36.662Z,95877.33
2017-10-11T19:21:06.132Z,95877.11
2017-10-11T19:23:35.177Z,95876.09
2017-10-11T19:26:04.222Z,95872.04
2017-10-11T19:28:33.363Z,95876.87
2017-10-11T19:31:03.110Z,95871.63
2017-10-11T19:33:32.661Z,95873.17
2017-10-11T19:36:01.787Z,95875.72
2017-10-11T19:38:30.854Z,95881.31
2017-10-11T19:40:59.922Z,95879.31
2017-10-11T19:43:28.959Z,95880.70
2017-10-11T19:45:58.043Z,95884.38
2017-10-11T19:48:27.146Z,95884.87
2017-10-11T19:50:56.193Z,95885.78
2017-10-11T19:53:25.237Z,95888.13
2017-10-11T19:55:54.647Z,95887.10
2017-10-11T19:58:23.687Z,95893.05
2017-10-11T20:00:52.814Z,95894.61
2017-10-11T20:03:21.867Z,95895.25
2017-10-11T20:05:50.913Z,95902.90
2017-10-11T20:08:19.962Z,95901.41
2017-10-11T20:10:49.013Z,95903.89
2017-10-11T20:13:18.039Z,95903.44
2017-10-11T20:15:47.083Z,95903.23
2017-10-11T20:18:16.126Z,95904.28
2017-10-11T20:20:45.224Z,95909.30
2017-10-11T20:23:14.238Z,95906.83
2017-10-11T20:25:43.269Z,95905.05
2017-10-11T20:28:12.322Z,95907.52
2017-10-11T20:30:41.362Z,95909.52
2017-10-11T20:33:11.403Z,95908.80
2017-10-11T20:35:41.398Z,95911.91
2017-10-11T20:38:10.436Z,95915.56
2017-10-11T20:40:39.473Z,95912.81
2017-10-11T20:43:09.491Z,95910.92
2017-10-11T20:45:38.539Z,95912.50
2017-10-11T20:48:07.730Z,95910.93
2017-10-11T20:50:37.341Z,95910.88
2017-10-11T20:55:42.238Z,95913.99
2017-10-11T20:58:11.458Z,95912.55
2017-10-11T21:00:40.486Z,95910.17
2017-10-11T21:03:09.622Z,95910.89
2017-10-11T21:05:38.657Z,95912.06
2017-10-11T21:08:07.690Z,95913.02
2017-10-11T21:10:36.718Z,95911.42
2017-10-11T21:13:05.750Z,95915.89
2017-10-11T21:15:34.798Z,95912.92
2017-10-11T21:18:03.825Z,95913.05
2017-10-11T21:20:32.981Z,95907.78
2017-10-11T21:23:02.003Z,95910.17
2017-10-11T21:25:31.043Z,95910.50
2017-10-11T21:28:00.079Z,95909.52
2017-10-11T21:30:30.251Z,95907.72
2017-10-11T21:32:59.282Z,95905.39
2017-10-11T21:35:28.372Z,95907.08
2017-10-11T21:37:57.418Z,95905.14
2017-10-11T21:40:26.462Z,95910.89
2017-10-11T21:42:55.503Z,95904.82
2017-10-11T21:45:24.565Z,95905.62
2017-10-11T21:47:54.202Z,95906.41
2017-10-11T21:50:23.240Z,95907.98
2017-10-11T21:52:52.279Z,95902.57
2017-10-11T21:55:21.344Z,95904.92
2017-10-11T21:57:50.388Z,95907.44
2017-10-11T22:00:19.434Z,95909.52
2017-10-11T22:02:48.751Z,95917.09
2017-10-11T22:05:17.941Z,95911.27
2017-10-11T22:07:46.979Z,95914.05
2017-10-11T22:10:16.026Z,95908.95
2017-10-11T22:12:45.071Z,95910.75
2017-10-11T22:15:14.115Z,95911.23
2017-10-11T22:17:43.173Z,95914.15
2017-10-11T22:20:12.234Z,95912.98
2017-10-11T22:22:41.279Z,95915.57
2017-10-11T22:25:10.358Z,95916.20
2017-10-11T22:27:39.395Z,95918.09
2017-10-11T22:30:08.460Z,95916.86
2017-10-11T22:32:37.492Z,95917.27
2017-10-11T22:35:06.550Z,95918.18
2017-10-11T22:37:35.586Z,95915.81
2017-10-11T22:40:04.632Z,95915.86
2017-10-11T22:42:33.667Z,95915.91
2017-10-11T22:45:02.858Z,95916.81
2017-10-11T22:47:31.892Z,95914.94
2017-10-11T22:50:00.970Z,95912.31
2017-10-11T22:52:30.002Z,95909.02
2017-10-11T22:54:59.033Z,95912.54
2017-10-11T22:57:28.068Z,95910.48
2017-10-11T22:59:57.098Z,95911.20
2017-10-11T23:02:26.150Z,95910.95
2017-10-11T23:04:56.171Z,95907.98
2017-10-11T23:07:25.202Z,95909.36
2017-10-11T23:09:54.255Z,95906.80
2017-10-11T23:12:23.284Z,95908.83
2017-10-11T23:14:52.339Z,95907.11
2017-10-11T23:17:21.378Z,95906.64
2017-10-11T23:19:50.437Z,95907.69
2017-10-11T23:22:19.483Z,95910.98
2017-10-11T23:24:48.554Z,95913.97
2017-10-11T23:27:17.609Z,95905.42
2017-10-11T23:29:46.648Z,95910.50
2017-10-11T23:32:15.694Z,95910.20
2017-10-11T23:34:44.741Z,95920.05
2017-10-11T23:37:13.782Z,95913.27
2017-10-11T23:39:42.870Z,95914.14
2017-10-11T23:42:11.894Z,95911.42
2017-10-11T23:44:41.865Z,95911.11
2017-10-11T23:47:10.918Z,95907.42
2017-10-11T23:49:39.950Z,95913.52
2017-10-11T23:52:09.003Z,95917.27
2017-10-11T23:54:38.963Z,95923.53
2017-10-11T23:57:07.994Z,95921.36
2017-10-11T23:59:38.575Z,95920.20
